Time;durP1;ratioP1;P1;durP2;ratioP2;P2;SDS_P1;SDS_P2;PMS_P1;PMS_P2;Temp;Humidity;BMP_temperature;BMP_pressure;BME280_temperature;BME280_humidity;BME280_pressure;Samples;Min_cycle;Max_cycle;Signal;HPM_P1;HPM_P2
2021/07/06 00:04:09;;;;;;;3.78;3.38;;;;;;;17.91;70.82;99609.16;10309862;28;20743;-73
2021/07/06 00:09:12;;;;;;;7.80;3.20;;;;;;;17.90;70.93;99603.91;10312223;28;20243;-73
2021/07/06 00:14:16;;;;;;;3.97;2.60;;;;;;;17.96;70.76;99591.44;10309135;28;20244;-73
2021/07/06 00:19:19;;;;;;;3.92;2.55;;;;;;;17.97;70.45;99587.72;10313355;28;20815;-73
2021/07/06 00:24:22;;;;;;;3.65;3.20;;;;;;;17.98;70.52;99584.81;10312395;28;20227;-73
2021/07/06 00:29:26;;;;;;;3.67;3.28;;;;;;;17.98;70.49;99589.41;10311830;28;20239;-73
2021/07/06 00:34:29;;;;;;;3.45;3.15;;;;;;;17.93;70.79;99571.75;10308831;28;20226;-73
2021/07/06 00:39:32;;;;;;;3.67;2.65;;;;;;;17.91;70.96;99575.72;10310609;28;20235;-72
2021/07/06 00:44:37;;;;;;;2.95;2.65;;;;;;;17.90;71.00;99564.00;10310939;28;20285;-73
2021/07/06 00:49:40;;;;;;;5.50;2.90;;;;;;;17.88;71.21;99559.78;10309640;28;20247;-73
2021/07/06 00:54:43;;;;;;;2.97;2.70;;;;;;;17.85;71.28;99561.03;10311520;28;20262;-73
2021/07/06 00:59:47;;;;;;;2.83;2.55;;;;;;;17.81;71.63;99562.44;10311640;28;20250;-73
2021/07/06 01:04:50;;;;;;;3.95;2.65;;;;;;;17.75;71.77;99556.94;10308175;28;20247;-73
2021/07/06 01:09:53;;;;;;;4.82;2.55;;;;;;;17.74;71.86;99557.97;10310877;28;20231;-73
2021/07/06 01:14:58;;;;;;;2.20;2.10;;;;;;;17.72;72.11;99552.75;10311292;28;20755;-73
2021/07/06 01:20:08;;;;;;;2.95;2.53;;;;;;;17.76;71.82;99545.03;10310124;28;20242;-73
2021/07/06 01:25:14;;;;;;;3.15;2.20;;;;;;;17.80;71.41;99544.47;10309940;28;20247;-73
2021/07/06 01:30:19;;;;;;;2.47;2.28;;;;;;;17.81;71.10;99546.16;10322852;28;20243;-73
2021/07/06 01:35:22;;;;;;;3.10;2.28;;;;;;;17.77;71.18;99544.88;10306508;28;20250;-73
2021/07/06 01:40:27;;;;;;;2.55;1.95;;;;;;;17.77;71.13;99538.56;10311743;28;20745;-73
2021/07/06 01:45:32;;;;;;;3.72;2.28;;;;;;;17.73;71.21;99523.69;10308724;28;20231;-73
2021/07/06 01:50:37;;;;;;;3.15;2.30;;;;;;;17.76;70.95;99520.59;10306988;28;20235;-73
2021/07/06 01:55:43;;;;;;;2.22;2.03;;;;;;;17.73;70.79;99524.53;10305305;28;20227;-73
2021/07/06 02:00:48;;;;;;;6.00;2.45;;;;;;;17.71;70.73;99515.72;10307726;28;20345;-73
2021/07/06 02:05:56;;;;;;;2.35;2.15;;;;;;;17.69;70.43;99513.22;10308252;28;20234;-73
2021/07/06 02:11:00;;;;;;;2.38;2.00;;;;;;;17.71;70.19;99507.59;10306600;28;20243;-72
2021/07/06 02:16:03;;;;;;;2.53;2.28;;;;;;;17.78;69.86;99494.09;10309183;28;20242;-72
2021/07/06 02:21:07;;;;;;;1.90;1.80;;;;;;;17.73;69.79;99478.38;10306918;28;20737;-72
2021/07/06 02:26:12;;;;;;;2.80;1.83;;;;;;;17.51;69.96;99482.94;10307453;28;20243;-72
2021/07/06 02:31:14;;;;;;;3.03;2.00;;;;;;;17.59;69.57;99488.25;10306221;28;20265;-72
2021/07/06 02:36:17;;;;;;;2.20;2.00;;;;;;;17.60;69.05;99489.06;10303947;28;20321;-72
2021/07/06 02:41:21;;;;;;;2.10;1.90;;;;;;;17.64;68.82;99496.66;10305168;28;20238;-72
2021/07/06 02:46:24;;;;;;;2.00;1.90;;;;;;;17.56;68.71;99488.63;10307358;28;20235;-72
2021/07/06 02:51:27;;;;;;;2.30;1.67;;;;;;;17.71;68.14;99485.84;10306569;28;20357;-72
2021/07/06 02:56:32;;;;;;;1.88;1.73;;;;;;;17.75;67.77;99489.88;10304913;28;20616;-72
2021/07/06 03:01:35;;;;;;;2.65;1.90;;;;;;;17.82;67.23;99488.06;10306978;28;20245;-72
2021/07/06 03:06:38;;;;;;;1.63;1.50;;;;;;;17.90;66.88;99482.50;10305461;28;20316;-72
2021/07/06 03:11:44;;;;;;;1.90;1.80;;;;;;;17.85;66.90;99479.56;10305938;28;20243;-72
2021/07/06 03:16:47;;;;;;;2.35;2.15;;;;;;;17.70;67.79;99476.03;10307495;28;20235;-72
2021/07/06 03:21:51;;;;;;;1.92;1.65;;;;;;;17.64;68.50;99472.22;10313364;28;20317;-73
2021/07/06 03:26:55;;;;;;;2.05;1.92;;;;;;;17.65;68.59;99473.06;10312876;28;20704;-73
2021/07/06 03:31:58;;;;;;;1.95;1.60;;;;;;;17.63;68.31;99466.97;10311171;28;20246;-72
2021/07/06 03:37:02;;;;;;;1.83;1.67;;;;;;;17.74;68.00;99468.34;10311746;28;20242;-73
2021/07/06 03:42:08;;;;;;;3.38;1.95;;;;;;;17.69;68.28;99468.94;10311130;28;20242;-72
2021/07/06 03:47:11;;;;;;;1.70;1.60;;;;;;;17.75;68.25;99451.03;10310298;28;20235;-72
2021/07/06 03:52:14;;;;;;;2.30;2.10;;;;;;;17.66;68.34;99455.72;10310335;28;20237;-72
2021/07/06 03:57:28;;;;;;;1.90;1.80;;;;;;;17.70;68.38;99438.03;10310629;28;20231;-72
2021/07/06 04:02:31;;;;;;;1.95;1.80;;;;;;;17.76;67.99;99448.09;10309870;28;20324;-72
2021/07/06 04:07:35;;;;;;;4.80;1.60;;;;;;;17.92;67.38;99438.84;10309113;28;20628;-72
2021/07/06 04:12:40;;;;;;;5.65;1.90;;;;;;;18.16;67.50;99456.66;10308601;28;20246;-73
2021/07/06 04:17:43;;;;;;;2.83;2.42;;;;;;;18.10;68.55;99468.28;10309228;28;20277;-73
2021/07/06 04:22:48;;;;;;;2.63;2.03;;;;;;;17.89;69.79;99471.84;10312458;28;20330;-73
2021/07/06 04:27:52;;;;;;;3.28;2.00;;;;;;;17.83;69.86;99453.63;10308753;28;20600;-72
2021/07/06 04:32:55;;;;;;;4.00;2.30;;;;;;;17.85;70.24;99451.53;10309483;28;21527;-72
2021/07/06 04:37:58;;;;;;;3.47;2.50;;;;;;;17.94;70.12;99458.53;10307513;28;20344;-73
2021/07/06 04:43:05;;;;;;;5.30;2.30;;;;;;;17.92;69.77;99441.56;10307913;28;20723;-73
2021/07/06 04:48:10;;;;;;;3.17;2.15;;;;;;;17.89;70.24;99442.78;10316402;28;20258;-73
2021/07/06 04:53:14;;;;;;;3.22;2.40;;;;;;;18.10;70.09;99441.13;10352983;28;20227;-72
2021/07/06 04:58:18;;;;;;;3.67;2.55;;;;;;;18.19;69.58;99437.25;10314181;28;20243;-72
2021/07/06 05:03:21;;;;;;;3.42;2.28;;;;;;;18.19;69.90;99423.66;10311392;28;20238;-73
2021/07/06 05:08:25;;;;;;;2.92;2.35;;;;;;;18.27;69.80;99411.78;10308620;28;20243;-72
2021/07/06 05:13:29;;;;;;;2.85;2.20;;;;;;;18.33;69.65;99411.81;10308454;28;21487;-72
2021/07/06 05:18:32;;;;;;;2.50;2.30;;;;;;;18.62;68.83;99412.63;10307595;28;20238;-72
2021/07/06 05:23:35;;;;;;;3.33;1.92;;;;;;;18.77;67.68;99416.06;10310752;28;20688;-72
2021/07/06 05:28:39;;;;;;;2.22;2.03;;;;;;;19.14;66.49;99413.97;10308834;28;20650;-72
2021/07/06 05:33:42;;;;;;;2.05;1.83;;;;;;;19.26;66.13;99416.09;10319303;28;20617;-72
2021/07/06 05:38:45;;;;;;;4.25;1.80;;;;;;;19.30;65.11;99409.19;10349529;28;20241;-72
2021/07/06 05:43:50;;;;;;;2.42;2.22;;;;;;;19.23;65.41;99411.91;10347247;28;20242;-72
2021/07/06 05:48:52;;;;;;;2.67;1.90;;;;;;;19.45;65.31;99412.59;10350337;28;20243;-74
2021/07/06 05:53:55;;;;;;;2.20;2.00;;;;;;;19.82;64.69;99424.00;10348961;28;20242;-74
2021/07/06 05:59:00;;;;;;;5.18;2.35;;;;;;;20.00;63.82;99405.16;10347066;28;20601;-74
2021/07/06 06:04:03;;;;;;;2.50;2.25;;;;;;;20.25;63.40;99409.97;10345172;28;20349;-74
2021/07/06 06:09:06;;;;;;;3.85;2.40;;;;;;;20.54;61.16;99404.06;10347437;28;20587;-73
2021/07/06 06:14:10;;;;;;;2.55;2.05;;;;;;;20.86;59.06;99423.28;10348033;28;20818;-71
2021/07/06 06:19:16;;;;;;;3.10;2.45;;;;;;;21.31;58.46;99428.81;10337096;28;20234;-71
2021/07/06 06:24:19;;;;;;;3.78;2.20;;;;;;;21.47;57.86;99437.53;10305221;28;20234;-71
2021/07/06 06:29:23;;;;;;;3.47;2.00;;;;;;;21.77;57.57;99435.91;10306735;28;20744;-71
2021/07/06 06:34:26;;;;;;;2.03;1.88;;;;;;;21.77;56.24;99449.56;10306364;28;20247;-72
2021/07/06 06:39:29;;;;;;;2.53;2.33;;;;;;;21.80;56.45;99460.09;10305925;28;20239;-71
2021/07/06 06:44:33;;;;;;;2.40;2.20;;;;;;;21.53;57.38;99461.25;10305324;28;20637;-70
2021/07/06 06:49:36;;;;;;;3.33;2.53;;;;;;;21.37;58.27;99457.16;10317707;28;20252;-71
2021/07/06 06:54:39;;;;;;;3.03;2.72;;;;;;;21.49;57.92;99452.66;10340942;28;20239;-71
2021/07/06 06:59:43;;;;;;;5.38;2.90;;;;;;;21.97;57.27;99454.06;10323746;28;20242;-71
2021/07/06 07:04:47;;;;;;;2.85;2.65;;;;;;;22.00;55.88;99464.56;10322643;28;20250;-71
2021/07/06 07:09:51;;;;;;;4.50;2.60;;;;;;;22.48;55.88;99462.06;10312888;28;20222;-71
2021/07/06 07:14:55;;;;;;;4.32;2.90;;;;;;;22.69;54.68;99449.88;10310575;28;20822;-73
2021/07/06 07:19:58;;;;;;;4.15;1.92;;;;;;;22.27;54.09;99449.63;10312900;28;20590;-73
2021/07/06 07:25:01;;;;;;;2.45;2.15;;;;;;;22.46;54.47;99449.69;10313708;28;20249;-73
2021/07/06 07:30:07;;;;;;;4.03;2.50;;;;;;;22.00;55.40;99457.22;10321769;28;20230;-71
2021/07/06 07:35:12;;;;;;;3.47;2.35;;;;;;;21.29;56.82;99474.63;10312176;28;20246;-71
2021/07/06 07:40:18;;;;;;;6.45;2.40;;;;;;;21.25;58.01;99488.91;10328384;28;20738;-71
2021/07/06 07:45:22;;;;;;;3.30;2.13;;;;;;;20.89;59.51;99495.72;10352238;28;20257;-72
2021/07/06 07:50:25;;;;;;;3.55;2.20;;;;;;;20.58;61.89;99504.56;10352846;28;20273;-73
2021/07/06 07:55:28;;;;;;;2.13;1.92;;;;;;;20.12;63.20;99512.50;10365788;28;20237;-72
2021/07/06 08:00:32;;;;;;;2.33;1.30;;;;;;;19.78;65.56;99518.09;10352200;28;20230;-73
2021/07/06 08:05:35;;;;;;;4.57;1.70;;;;;;;19.40;67.04;99513.13;10316306;28;20239;-72
2021/07/06 08:10:38;;;;;;;2.25;1.52;;;;;;;19.22;67.00;99529.97;10309999;28;20231;-72
2021/07/06 08:15:42;;;;;;;1.50;1.40;;;;;;;19.20;67.70;99562.88;10309833;28;20890;-73
2021/07/06 08:20:46;;;;;;;3.50;1.58;;;;;;;18.60;70.30;99550.72;10311251;28;20246;-73
2021/07/06 08:25:49;;;;;;;1.92;1.33;;;;;;;18.63;71.82;99560.34;10311415;28;20285;-72
2021/07/06 08:30:54;;;;;;;2.15;1.50;;;;;;;18.01;72.15;99572.72;10311279;28;20270;-73
2021/07/06 08:35:57;;;;;;;1.58;1.38;;;;;;;18.02;73.46;99550.81;10310459;28;20246;-73
2021/07/06 08:41:00;;;;;;;3.33;1.35;;;;;;;18.01;73.85;99559.97;10310934;28;20238;-73
2021/07/06 08:46:05;;;;;;;3.40;1.65;;;;;;;17.72;75.76;99579.03;10325600;28;20706;-75
2021/07/06 08:51:08;;;;;;;2.08;1.63;;;;;;;17.40;75.99;99571.13;10350245;28;20234;-74
2021/07/06 08:56:11;;;;;;;1.95;1.55;;;;;;;17.07;78.03;99573.34;10345371;28;20243;-74
2021/07/06 09:01:16;;;;;;;2.10;1.48;;;;;;;16.59;80.89;99537.56;10309442;28;20325;-74
2021/07/06 09:06:19;;;;;;;2.40;1.40;;;;;;;16.97;81.72;99480.53;10307988;28;20239;-74
2021/07/06 09:11:22;;;;;;;2.80;1.60;;;;;;;16.64;82.08;99420.44;10312100;28;20330;-73
2021/07/06 09:16:27;;;;;;;4.00;1.67;;;;;;;16.56;83.37;99407.81;10311550;28;20238;-74
2021/07/06 09:21:30;;;;;;;1.73;1.63;;;;;;;16.56;84.47;99408.66;10309084;28;20235;-73
2021/07/06 09:26:34;;;;;;;3.60;1.90;;;;;;;16.69;83.93;99451.38;10308767;28;20234;-74
2021/07/06 09:31:39;;;;;;;3.33;1.90;;;;;;;16.68;83.71;99446.16;10310030;28;20809;-73
2021/07/06 09:36:45;;;;;;;3.38;2.28;;;;;;;16.76;84.37;99405.38;10309377;28;20239;-73
2021/07/06 09:41:56;;;;;;;2.20;2.00;;;;;;;16.51;83.79;99335.19;10307555;28;20243;-73
2021/07/06 09:47:04;;;;;;;2.10;1.88;;;;;;;16.31;83.64;99310.53;10311496;28;20246;-73
2021/07/06 09:52:13;;;;;;;3.45;2.20;;;;;;;16.51;83.39;99327.06;10308687;28;20242;-73
2021/07/06 09:57:26;;;;;;;3.35;1.55;;;;;;;16.71;82.87;99372.56;10307908;28;20242;-73
2021/07/06 10:02:32;;;;;;;1.85;1.70;;;;;;;17.00;81.72;99377.09;10307476;28;20241;-73
2021/07/06 10:07:38;;;;;;;3.42;1.85;;;;;;;17.49;81.16;99381.81;10313098;28;20238;-75
2021/07/06 10:12:43;;;;;;;1.45;1.35;;;;;;;17.80;80.82;99358.91;10309221;28;20258;-73
2021/07/06 10:17:49;;;;;;;3.58;1.80;;;;;;;18.10;79.22;99352.31;10321276;28;20292;-73
2021/07/06 10:22:53;;;;;;;2.83;2.20;;;;;;;18.23;77.98;99388.75;10308212;28;20264;-73
2021/07/06 10:27:59;;;;;;;1.95;1.70;;;;;;;18.29;77.97;99388.81;10307455;28;20740;-73
2021/07/06 10:33:04;;;;;;;1.92;1.20;;;;;;;18.46;76.72;99393.94;10307570;28;20238;-74
2021/07/06 10:38:41;;;;;;;2.08;1.30;;;;;;;18.65;75.45;99420.41;10308946;28;20230;-73
2021/07/06 10:43:55;;;;;;;2.33;1.40;;;;;;;18.61;74.04;99415.56;10309620;28;20381;-73
2021/07/06 10:49:02;;;;;;;1.80;1.67;;;;;;;18.79;75.72;99445.84;10306666;28;20231;-73
2021/07/06 10:54:06;;;;;;;2.47;1.65;;;;;;;18.68;75.97;99457.25;10308806;28;20235;-73
2021/07/06 10:59:19;;;;;;;2.15;1.60;;;;;;;18.45;77.07;99463.75;10308435;28;20907;-73
2021/07/06 11:05:10;;;;;;;2.85;1.50;;;;;;;18.39;77.53;99488.19;10307065;28;20231;-73
2021/07/06 11:10:16;;;;;;;2.72;1.90;;;;;;;18.64;78.15;99499.47;10308835;28;20239;-73
2021/07/06 11:15:25;;;;;;;4.25;1.73;;;;;;;19.00;76.99;99504.75;10307656;28;21514;-73
2021/07/06 11:20:33;;;;;;;1.75;1.65;;;;;;;19.32;77.00;99510.56;10308840;28;20750;-73
2021/07/06 11:25:41;;;;;;;2.00;1.58;;;;;;;21.04;73.81;99499.06;10308379;28;21300;-73
2021/07/06 11:30:49;;;;;;;2.05;1.60;;;;;;;21.83;74.18;99497.91;10309473;28;20238;-73
2021/07/06 11:35:54;;;;;;;3.53;1.30;;;;;;;21.43;68.65;99492.63;10307314;28;20247;-73
2021/07/06 11:41:01;;;;;;;1.55;1.20;;;;;;;21.83;65.59;99525.25;10314750;28;20308;-73
2021/07/06 11:46:05;;;;;;;1.13;1.02;;;;;;;21.13;69.70;99522.34;10313963;28;20237;-73
2021/07/06 11:51:11;;;;;;;1.35;1.25;;;;;;;20.82;68.17;99500.34;10315342;28;20223;-73
2021/07/06 11:56:15;;;;;;;1.25;1.15;;;;;;;21.01;70.26;99510.41;10311269;28;20625;-73
2021/07/06 12:01:18;;;;;;;1.80;1.30;;;;;;;21.52;68.82;99516.94;10326109;28;20238;-73
2021/07/06 12:06:23;;;;;;;1.40;1.30;;;;;;;21.83;65.70;99500.66;10312862;28;20242;-73
2021/07/06 12:11:29;;;;;;;1.90;1.20;;;;;;;22.44;63.42;99484.66;10315686;28;20227;-73
2021/07/06 12:16:34;;;;;;;2.67;1.50;;;;;;;23.02;60.11;99494.41;10312120;28;20241;-73
2021/07/06 12:21:39;;;;;;;1.40;1.30;;;;;;;23.37;59.41;99503.72;10309760;28;20219;-73
2021/07/06 12:26:45;;;;;;;2.70;1.50;;;;;;;23.37;59.27;99489.19;10309040;28;20814;-73
2021/07/06 12:31:50;;;;;;;1.23;1.13;;;;;;;23.92;57.24;99499.22;10311107;28;20239;-73
2021/07/06 12:36:55;;;;;;;1.52;1.15;;;;;;;24.03;56.38;99490.19;10310902;28;20654;-73
2021/07/06 12:42:02;;;;;;;1.67;1.50;;;;;;;24.70;53.85;99498.16;10313109;28;20254;-73
2021/07/06 12:47:16;;;;;;;1.67;1.33;;;;;;;23.24;55.16;99500.28;10311436;28;20589;-73
2021/07/06 12:52:21;;;;;;;1.40;1.20;;;;;;;22.54;56.14;99493.19;10310243;28;20240;-73
2021/07/06 12:57:29;;;;;;;3.17;1.75;;;;;;;21.86;57.07;99504.84;10311217;28;20239;-73
2021/07/06 13:02:34;;;;;;;1.40;1.30;;;;;;;21.87;58.17;99498.31;10312236;28;20237;-73
2021/07/06 13:07:37;;;;;;;0.90;0.90;;;;;;;22.45;55.55;99511.78;10310026;28;21507;-72
2021/07/06 13:12:43;;;;;;;1.27;1.17;;;;;;;22.43;56.60;99524.84;10311211;28;20611;-73
2021/07/06 13:17:48;;;;;;;0.95;0.80;;;;;;;23.24;52.92;99555.09;10308458;28;20728;-73
2021/07/06 13:22:55;;;;;;;1.00;0.98;;;;;;;22.10;52.13;99547.81;10312016;28;20320;-73
2021/07/06 13:28:00;;;;;;;1.23;1.05;;;;;;;21.74;52.75;99563.94;10311043;28;20239;-72
2021/07/06 13:33:05;;;;;;;1.00;1.00;;;;;;;22.51;52.02;99560.13;10312200;28;20242;-73
2021/07/06 13:38:08;;;;;;;0.98;0.98;;;;;;;23.81;49.90;99547.47;10308502;28;20250;-73
2021/07/06 13:43:13;;;;;;;1.95;0.88;;;;;;;25.00;46.82;99587.84;10309710;28;20235;-73
2021/07/06 13:48:17;;;;;;;1.20;0.90;;;;;;;23.15;49.28;99595.63;10309720;28;20238;-73
2021/07/06 13:53:20;;;;;;;1.52;1.20;;;;;;;22.13;51.90;99581.22;10310194;28;21400;-73
2021/07/06 13:58:24;;;;;;;0.90;0.90;;;;;;;21.87;53.00;99586.59;10310289;28;20899;-73
2021/07/06 14:03:27;;;;;;;0.98;0.95;;;;;;;21.99;51.94;99602.31;10306050;28;21383;-73
2021/07/06 14:08:35;;;;;;;1.35;1.20;;;;;;;22.66;50.64;99573.50;10307315;28;20795;-72
2021/07/06 14:13:39;;;;;;;1.27;1.00;;;;;;;22.69;49.91;99577.69;10308724;28;20716;-73
2021/07/06 14:19:02;;;;;;;1.00;0.98;;;;;;;22.27;50.90;99580.91;10310384;28;20967;-73
2021/07/06 14:24:06;;;;;;;1.42;0.90;;;;;;;22.66;50.31;99594.56;10309610;28;20235;-73
2021/07/06 14:29:12;;;;;;;1.05;0.90;;;;;;;22.19;49.84;99604.94;10307167;28;20238;-73
2021/07/06 14:34:15;;;;;;;3.67;1.20;;;;;;;21.07;51.99;99607.84;10305054;28;20243;-72
2021/07/06 14:39:18;;;;;;;2.17;1.05;;;;;;;21.23;50.51;99617.50;10307013;28;20837;-73
2021/07/06 14:44:23;;;;;;;1.33;1.00;;;;;;;21.09;51.37;99621.25;10309598;28;20724;-72
2021/07/06 14:49:25;;;;;;;2.08;0.90;;;;;;;20.82;49.91;99625.91;10309410;28;20707;-72
2021/07/06 14:54:30;;;;;;;1.10;1.00;;;;;;;21.30;49.79;99631.13;10308763;28;20799;-72
2021/07/06 14:59:34;;;;;;;2.70;1.10;;;;;;;21.60;49.15;99626.00;10307435;28;20242;-72
2021/07/06 15:04:37;;;;;;;3.53;1.00;;;;;;;21.34;48.52;99635.97;10305674;28;20311;-73
2021/07/06 15:09:40;;;;;;;5.65;1.20;;;;;;;21.38;48.00;99656.31;10306119;28;20231;-72
2021/07/06 15:14:44;;;;;;;1.60;1.10;;;;;;;21.36;47.92;99665.78;10312087;28;20247;-72
2021/07/06 15:19:47;;;;;;;1.85;1.20;;;;;;;21.70;48.35;99664.66;10315041;28;20243;-72
2021/07/06 15:24:50;;;;;;;0.98;0.90;;;;;;;20.98;48.18;99664.53;10313311;28;20255;-72
2021/07/06 15:29:54;;;;;;;1.08;0.98;;;;;;;21.19;47.20;99677.13;10313512;28;20239;-73
2021/07/06 15:34:57;;;;;;;1.60;1.00;;;;;;;21.06;46.75;99663.47;10310799;28;21493;-72
2021/07/06 15:40:00;;;;;;;0.70;0.70;;;;;;;21.28;46.53;99669.56;10312200;28;20238;-72
2021/07/06 15:45:06;;;;;;;0.90;0.90;;;;;;;21.55;46.70;99669.53;10312005;28;20615;-73
2021/07/06 15:50:09;;;;;;;4.55;1.00;;;;;;;21.81;45.12;99674.13;10314894;28;20258;-74
2021/07/06 15:55:14;;;;;;;0.80;0.80;;;;;;;22.44;44.71;99679.75;10311605;28;20242;-74
2021/07/06 16:00:19;;;;;;;1.73;0.80;;;;;;;21.95;45.27;99672.19;10314379;28;20238;-74
2021/07/06 16:05:22;;;;;;;1.20;1.00;;;;;;;21.76;46.55;99655.63;10314861;28;20231;-74
2021/07/06 16:10:25;;;;;;;1.98;0.90;;;;;;;22.23;45.51;99674.56;10312796;28;20231;-74
2021/07/06 16:15:29;;;;;;;2.05;1.08;;;;;;;22.20;46.55;99667.63;10308626;28;20257;-74
2021/07/06 16:20:32;;;;;;;2.67;0.98;;;;;;;22.66;44.55;99661.09;10312817;28;20730;-74
2021/07/06 16:25:35;;;;;;;1.55;0.82;;;;;;;23.45;42.52;99667.00;10312395;28;20235;-73
2021/07/06 16:30:40;;;;;;;2.00;1.10;;;;;;;23.76;41.48;99649.59;10313624;28;20234;-74
2021/07/06 16:35:47;;;;;;;2.25;1.35;;;;;;;25.65;38.42;99650.97;10313132;28;20239;-74
2021/07/06 16:40:51;;;;;;;2.08;0.80;;;;;;;24.82;38.80;99669.28;10313379;28;20743;-74
2021/07/06 16:45:56;;;;;;;2.92;1.08;;;;;;;25.98;37.70;99652.22;10313105;28;20241;-74
2021/07/06 18:00:37;;;;;;;3.30;1.10;;;;;;;20.12;47.40;99730.59;10184829;28;20245;-72
2021/07/06 18:05:42;;;;;;;3.50;1.00;;;;;;;20.17;47.76;99731.88;10307852;28;21407;-72
2021/07/06 18:10:46;;;;;;;4.35;1.30;;;;;;;20.16;47.75;99746.53;10308816;28;20927;-72
2021/07/06 18:15:49;;;;;;;2.60;1.15;;;;;;;20.18;48.19;99769.81;10309774;28;20239;-73
2021/07/06 18:20:56;;;;;;;1.45;1.20;;;;;;;19.88;49.39;99781.00;10304648;28;20231;-73
2021/07/06 18:25:58;;;;;;;2.45;1.30;;;;;;;19.97;49.47;99781.69;10310003;28;20235;-73
2021/07/06 18:31:03;;;;;;;2.45;1.60;;;;;;;19.66;49.63;99788.41;10306060;28;20730;-72
2021/07/06 18:36:07;;;;;;;4.32;1.90;;;;;;;19.53;48.43;99782.81;10306466;28;20235;-72
2021/07/06 18:41:10;;;;;;;4.60;1.90;;;;;;;19.33;48.92;99798.13;10305263;28;20245;-72
2021/07/06 18:46:15;;;;;;;5.15;1.90;;;;;;;19.30;48.95;99795.81;10305448;28;20238;-72
2021/07/06 18:51:19;;;;;;;5.57;1.92;;;;;;;19.49;48.71;99802.47;10315515;28;20373;-72
2021/07/06 18:56:22;;;;;;;5.35;2.00;;;;;;;19.52;47.95;99811.06;10312150;28;20242;-72
2021/07/06 19:01:25;;;;;;;3.20;2.05;;;;;;;19.33;48.71;99800.84;10317029;28;20223;-73
2021/07/06 19:06:29;;;;;;;2.92;1.90;;;;;;;19.55;47.62;99809.84;10316742;28;20234;-72
2021/07/06 19:11:32;;;;;;;6.13;2.55;;;;;;;19.63;47.82;99805.13;10313540;28;20285;-72
2021/07/06 19:16:35;;;;;;;4.47;2.25;;;;;;;19.60;48.52;99807.41;10313756;28;20235;-72
2021/07/06 19:21:40;;;;;;;7.68;2.47;;;;;;;19.67;47.58;99820.03;10314186;28;20235;-71
2021/07/06 19:26:43;;;;;;;3.80;2.00;;;;;;;19.40;48.94;99831.72;10313948;28;20243;-71
2021/07/06 19:32:07;;;;;;;3.78;1.90;;;;;;;19.49;48.82;99840.59;10314196;28;20230;-71
2021/07/06 19:37:11;;;;;;;4.88;2.03;;;;;;;19.21;49.83;99855.00;10324985;28;20239;-71
2021/07/06 19:42:14;;;;;;;4.32;2.05;;;;;;;19.13;49.26;99863.28;10315289;28;20253;-73
2021/07/06 19:47:18;;;;;;;2.30;1.80;;;;;;;18.96;50.03;99877.13;10314315;28;20235;-73
2021/07/06 19:52:23;;;;;;;4.03;2.17;;;;;;;18.99;49.73;99878.63;10315045;28;20312;-72
2021/07/06 19:57:26;;;;;;;5.05;2.13;;;;;;;18.95;49.35;99897.22;10326626;28;20231;-72
2021/07/06 20:02:29;;;;;;;4.63;2.03;;;;;;;18.60;49.32;99908.88;10309994;28;20235;-71
2021/07/06 20:07:33;;;;;;;4.90;2.40;;;;;;;18.35;50.00;99922.75;10311658;28;20247;-72
2021/07/06 20:12:36;;;;;;;5.03;1.90;;;;;;;17.98;50.76;99927.16;10314830;28;20738;-72
2021/07/06 20:17:39;;;;;;;2.53;1.88;;;;;;;18.32;50.03;99934.84;10312662;28;20243;-74
2021/07/06 20:22:43;;;;;;;4.80;2.17;;;;;;;18.10;50.76;99939.31;10314173;28;20246;-75
2021/07/06 20:27:46;;;;;;;4.43;2.10;;;;;;;18.08;51.10;99940.50;10312957;28;20322;-74
2021/07/06 20:32:50;;;;;;;4.55;2.08;;;;;;;18.18;50.74;99953.81;10312512;28;20237;-75
2021/07/06 20:37:56;;;;;;;5.18;1.80;;;;;;;18.07;50.63;99963.25;10311060;28;21839;-74
2021/07/06 20:42:59;;;;;;;4.60;2.05;;;;;;;18.08;50.84;99965.81;10325100;28;20319;-74
2021/07/06 20:48:04;;;;;;;3.17;2.00;;;;;;;17.92;51.50;99984.94;10312653;28;20269;-75
2021/07/06 20:53:10;;;;;;;6.30;2.15;;;;;;;17.86;51.55;99991.94;10312504;28;20269;-75
2021/07/06 20:58:13;;;;;;;9.00;2.17;;;;;;;17.66;52.29;99998.84;10311204;28;20235;-75
2021/07/06 21:03:16;;;;;;;4.30;2.40;;;;;;;17.69;52.33;100012.94;10311936;28;20223;-76
2021/07/06 21:08:20;;;;;;;13.52;2.45;;;;;;;17.85;51.52;100022.00;10314736;28;21146;-75
2021/07/06 21:13:23;;;;;;;5.47;2.10;;;;;;;17.83;52.00;100029.50;10311334;28;20945;-75
2021/07/06 21:18:26;;;;;;;5.78;1.90;;;;;;;17.73;52.51;100034.31;10312358;28;20697;-75
2021/07/06 21:23:31;;;;;;;6.20;2.08;;;;;;;17.68;52.61;100045.72;10312749;28;20297;-75
2021/07/06 21:28:34;;;;;;;8.23;2.67;;;;;;;17.56;52.55;100036.28;10312031;28;20226;-75
2021/07/06 21:33:37;;;;;;;2.92;2.20;;;;;;;17.17;54.23;100038.00;10311133;28;20235;-75
2021/07/06 21:38:41;;;;;;;6.78;2.22;;;;;;;17.18;54.45;100058.69;10309255;28;20238;-75
2021/07/06 21:43:44;;;;;;;3.15;2.22;;;;;;;17.27;54.34;100051.34;10311932;28;20242;-75
2021/07/06 21:48:47;;;;;;;4.75;2.10;;;;;;;17.12;54.44;100053.09;10309187;28;20242;-75
2021/07/06 21:53:51;;;;;;;2.50;2.10;;;;;;;17.07;54.85;100052.75;10310853;28;20612;-75
2021/07/06 21:58:54;;;;;;;4.82;2.20;;;;;;;17.10;54.79;100058.69;10309555;28;20238;-75
2021/07/06 22:03:57;;;;;;;4.38;2.20;;;;;;;17.24;54.24;100065.28;10309158;28;20250;-75
2021/07/06 22:09:01;;;;;;;7.75;2.15;;;;;;;17.14;54.23;100060.06;10312001;28;20239;-75
2021/07/06 22:14:04;;;;;;;4.38;2.13;;;;;;;16.80;56.70;100058.41;10307322;28;20257;-75
2021/07/06 22:19:07;;;;;;;3.25;1.92;;;;;;;16.81;56.54;100072.81;10307113;28;20230;-75
2021/07/06 22:24:11;;;;;;;6.45;2.25;;;;;;;16.41;57.20;100068.31;10308269;28;20268;-74
2021/07/06 22:29:14;;;;;;;4.25;2.15;;;;;;;16.72;56.97;100058.44;10308294;28;20234;-75
2021/07/06 22:34:17;;;;;;;3.85;1.63;;;;;;;16.70;56.33;100086.72;10307160;28;20618;-75
2021/07/06 22:39:21;;;;;;;4.05;2.17;;;;;;;16.60;57.08;100078.81;10308663;28;20239;-75
2021/07/06 22:44:24;;;;;;;3.53;1.85;;;;;;;16.59;57.08;100086.09;10310434;28;20245;-74
2021/07/06 22:49:27;;;;;;;4.90;2.00;;;;;;;16.29;57.83;100074.06;10307501;28;20234;-74
2021/07/06 22:54:31;;;;;;;3.85;2.20;;;;;;;16.13;58.65;100071.31;10307747;28;20239;-75
2021/07/06 22:59:34;;;;;;;2.13;1.90;;;;;;;16.16;58.52;100087.25;10305886;28;20242;-75
2021/07/06 23:04:37;;;;;;;7.75;1.80;;;;;;;16.28;58.37;100098.63;10305745;28;20234;-75
2021/07/06 23:09:41;;;;;;;2.38;1.58;;;;;;;16.26;57.86;100109.63;10306221;28;20245;-75
2021/07/06 23:14:44;;;;;;;1.98;1.70;;;;;;;16.24;58.02;100116.22;10308804;28;20269;-75
2021/07/06 23:19:47;;;;;;;2.70;1.65;;;;;;;16.26;57.89;100125.03;10307883;28;20243;-74
2021/07/06 23:24:51;;;;;;;4.85;2.10;;;;;;;16.20;57.65;100129.22;10305985;28;20250;-75
2021/07/06 23:29:56;;;;;;;3.80;1.98;;;;;;;16.20;57.86;100129.22;10308758;28;20639;-75
2021/07/06 23:34:58;;;;;;;3.00;1.88;;;;;;;16.16;58.18;100163.09;10310210;28;20235;-75
2021/07/06 23:40:04;;;;;;;5.72;1.85;;;;;;;16.08;58.14;100157.66;10310572;28;20736;-75
2021/07/06 23:45:08;;;;;;;4.85;2.10;;;;;;;16.03;58.02;100155.44;10314401;28;20274;-74
2021/07/06 23:50:12;;;;;;;4.55;2.00;;;;;;;15.92;58.40;100164.72;10311885;28;20632;-75
2021/07/06 23:55:16;;;;;;;3.35;1.90;;;;;;;15.95;58.47;100165.41;10311351;28;20255;-74
